createdAt,value
2023-02-17T00:00:32.572Z,73.41
2023-02-17T00:05:57.315Z,73.16
2023-02-17T00:11:19.940Z,73.23
2023-02-17T00:16:42.097Z,73.03
2023-02-17T00:22:03.880Z,73.20
2023-02-17T00:27:27.433Z,72.90
2023-02-17T00:32:49.577Z,73.29
2023-02-17T00:38:11.380Z,73.05
2023-02-17T00:43:33.953Z,72.95
2023-02-17T00:48:55.813Z,72.87
2023-02-17T00:54:18.798Z,72.82
2023-02-17T00:59:40.829Z,72.93
2023-02-17T01:05:03.205Z,72.68
2023-02-17T01:10:25.303Z,72.24
2023-02-17T01:15:50.961Z,72.06
2023-02-17T01:21:20.700Z,72.10
2023-02-17T01:26:42.210Z,72.27
2023-02-17T01:32:04.628Z,72.27
2023-02-17T01:37:26.571Z,72.00
2023-02-17T01:42:49.401Z,72.13
2023-02-17T01:48:16.650Z,72.13
2023-02-17T01:53:50.118Z,72.56
2023-02-17T01:59:18.136Z,72.33
2023-02-17T02:04:41.602Z,72.28
2023-02-17T02:10:03.834Z,72.32
2023-02-17T02:15:32.635Z,72.23
2023-02-17T02:21:07.978Z,72.35
2023-02-17T02:26:54.379Z,72.13
2023-02-17T02:32:38.496Z,72.22
2023-02-17T02:38:12.372Z,72.27
2023-02-17T02:43:35.968Z,72.24
2023-02-17T02:48:57.529Z,72.18
2023-02-17T02:54:58.086Z,72.28
2023-02-17T03:00:36.072Z,71.92
2023-02-17T03:06:24.195Z,71.69
2023-02-17T03:11:46.947Z,71.68
2023-02-17T03:17:08.957Z,71.93
2023-02-17T03:22:37.306Z,72.04
2023-02-17T03:27:59.350Z,71.98
2023-02-17T03:33:22.068Z,71.97
2023-02-17T03:38:44.099Z,72.07
2023-02-17T03:44:05.628Z,71.86
2023-02-17T03:49:27.755Z,71.91
2023-02-17T03:54:49.485Z,71.84
2023-02-17T04:00:14.129Z,71.91
2023-02-17T04:05:36.011Z,71.76
2023-02-17T04:11:01.306Z,71.85
2023-02-17T04:16:23.009Z,71.94
2023-02-17T04:21:44.853Z,71.72
2023-02-17T04:27:06.826Z,71.86
2023-02-17T04:32:28.830Z,71.88
2023-02-17T04:37:51.436Z,71.96
2023-02-17T04:43:13.774Z,71.88
2023-02-17T04:48:35.910Z,71.84
2023-02-17T04:53:57.829Z,71.74
2023-02-17T04:59:23.184Z,71.47
2023-02-17T05:04:46.737Z,71.25
2023-02-17T05:10:09.566Z,71.56
2023-02-17T05:15:33.143Z,71.35
2023-02-17T05:20:56.277Z,71.06
2023-02-17T05:26:18.136Z,71.03
2023-02-17T05:31:39.885Z,70.89
2023-02-17T05:37:02.301Z,71.01
2023-02-17T05:42:28.983Z,70.94
2023-02-17T05:47:50.670Z,71.10
2023-02-17T05:53:12.913Z,71.10
2023-02-17T05:58:36.535Z,71.13
2023-02-17T06:03:58.868Z,71.09
2023-02-17T06:09:21.001Z,70.71
2023-02-17T06:14:43.530Z,71.14
2023-02-17T06:20:06.174Z,71.04
2023-02-17T06:25:27.998Z,70.88
2023-02-17T06:30:50.120Z,71.10
2023-02-17T06:36:12.658Z,71.34
2023-02-17T06:41:34.480Z,71.39
2023-02-17T06:46:56.505Z,71.43
2023-02-17T06:52:19.241Z,71.53
2023-02-17T06:57:41.166Z,70.33
2023-02-17T07:03:03.003Z,70.80
2023-02-17T07:08:25.131Z,70.60
2023-02-17T07:13:46.860Z,70.65
2023-02-17T07:19:09.003Z,70.43
2023-02-17T07:24:31.419Z,70.29
2023-02-17T07:29:53.249Z,70.38
2023-02-17T07:35:14.742Z,70.13
2023-02-17T07:40:36.719Z,69.86
2023-02-17T07:45:59.507Z,69.63
2023-02-17T07:51:22.881Z,69.83
2023-02-17T07:56:44.697Z,69.70
2023-02-17T08:02:07.395Z,69.76
2023-02-17T08:07:30.060Z,69.64
2023-02-17T08:13:12.469Z,69.79
2023-02-17T08:18:36.481Z,69.44
2023-02-17T08:23:58.837Z,69.48
2023-02-17T08:29:21.162Z,69.32
2023-02-17T08:34:43.541Z,70.13
2023-02-17T08:40:06.720Z,70.49
2023-02-17T08:45:28.750Z,70.80
2023-02-17T08:50:50.784Z,71.21
2023-02-17T08:56:12.966Z,70.61
2023-02-17T09:01:35.648Z,70.61
2023-02-17T09:06:58.527Z,70.74
2023-02-17T09:12:20.214Z,70.31
2023-02-17T09:17:41.942Z,70.28
2023-02-17T09:23:04.174Z,70.87
2023-02-17T09:28:25.775Z,70.58
2023-02-17T09:33:48.732Z,70.73
2023-02-17T09:39:13.831Z,70.96
2023-02-17T09:44:45.340Z,71.27
2023-02-17T09:50:11.874Z,71.60
2023-02-17T09:55:37.967Z,71.66
2023-02-17T10:01:05.784Z,72.11
2023-02-17T10:06:31.637Z,72.38
2023-02-17T10:12:04.395Z,72.33
2023-02-17T10:17:35.534Z,72.55
2023-02-17T10:23:07.707Z,72.55
2023-02-17T10:28:37.168Z,72.53
2023-02-17T10:34:05.897Z,72.35
2023-02-17T10:39:46.210Z,71.89
2023-02-17T10:45:11.451Z,72.08
2023-02-17T10:50:34.956Z,72.20
2023-02-17T10:56:05.446Z,72.42
2023-02-17T11:01:28.580Z,72.48
2023-02-17T11:06:53.424Z,72.30
2023-02-17T11:12:29.398Z,72.40
2023-02-17T11:17:52.032Z,71.79
2023-02-17T11:23:16.779Z,71.78
2023-02-17T11:28:38.592Z,70.80
2023-02-17T11:34:11.470Z,70.91
2023-02-17T11:39:41.530Z,70.68
2023-02-17T11:45:17.520Z,70.42
2023-02-17T11:50:58.511Z,70.67
2023-02-17T11:56:41.412Z,70.42
2023-02-17T12:02:16.424Z,70.87
2023-02-17T12:07:58.479Z,70.88
2023-02-17T12:13:36.473Z,71.40
2023-02-17T12:19:19.884Z,71.56
2023-02-17T12:24:45.382Z,71.44
2023-02-17T12:30:34.433Z,71.31
2023-02-17T12:36:01.890Z,71.48
2023-02-17T12:41:40.784Z,71.72
2023-02-17T12:47:10.455Z,71.66
2023-02-17T12:52:39.782Z,71.84
2023-02-17T12:58:08.135Z,71.65
2023-02-17T13:03:33.778Z,71.91
2023-02-17T13:08:58.636Z,71.67
2023-02-17T13:14:47.673Z,71.94
2023-02-17T13:20:09.573Z,72.02
2023-02-17T13:25:35.066Z,72.17
2023-02-17T13:31:09.664Z,72.12
2023-02-17T13:36:31.536Z,72.08
2023-02-17T13:41:58.169Z,71.93
2023-02-17T13:47:30.527Z,72.29
2023-02-17T13:52:52.663Z,71.95
2023-02-17T13:58:14.690Z,71.92
2023-02-17T14:03:47.359Z,72.09
2023-02-17T14:09:34.675Z,71.96
2023-02-17T14:14:56.401Z,72.02
2023-02-17T14:20:33.696Z,71.98
2023-02-17T14:25:57.118Z,72.17
2023-02-17T14:31:20.639Z,72.48
2023-02-17T14:36:42.713Z,72.87
2023-02-17T14:42:05.414Z,73.27
2023-02-17T14:47:27.545Z,73.56
2023-02-17T14:52:50.085Z,73.83
2023-02-17T14:58:24.152Z,73.77
2023-02-17T15:03:46.484Z,74.40
2023-02-17T15:09:12.439Z,74.34
2023-02-17T15:14:36.669Z,74.77
2023-02-17T15:19:59.041Z,75.01
2023-02-17T15:25:25.746Z,75.06
2023-02-17T15:30:52.950Z,74.90
2023-02-17T15:36:17.330Z,74.65
2023-02-17T15:41:40.443Z,75.16
2023-02-17T15:47:02.503Z,74.98
2023-02-17T15:52:24.355Z,74.95
2023-02-17T15:57:49.772Z,74.87
2023-02-17T16:03:13.734Z,74.88
2023-02-17T16:08:35.928Z,74.90
2023-02-17T16:13:57.774Z,75.22
2023-02-17T16:19:19.784Z,75.60
2023-02-17T16:24:42.219Z,75.28
2023-02-17T16:30:23.103Z,75.24
2023-02-17T16:35:45.373Z,75.14
2023-02-17T16:41:08.175Z,74.74
2023-02-17T16:46:34.635Z,74.65
2023-02-17T16:51:56.365Z,74.85
2023-02-17T16:57:19.809Z,74.62
2023-02-17T17:02:41.776Z,74.63
2023-02-17T17:08:04.146Z,74.55
2023-02-17T17:13:25.873Z,74.52
2023-02-17T17:18:48.097Z,74.74
2023-02-17T17:24:11.942Z,74.85
2023-02-17T17:29:33.770Z,75.16
2023-02-17T17:34:56.200Z,75.21
2023-02-17T17:40:22.041Z,75.39
2023-02-17T17:45:43.981Z,75.66
2023-02-17T17:51:07.023Z,76.13
2023-02-17T17:56:38.972Z,76.08
2023-02-17T18:02:00.499Z,76.66
2023-02-17T18:07:22.528Z,77.23
2023-02-17T18:12:45.966Z,77.58
2023-02-17T18:18:07.696Z,77.58
2023-02-17T18:23:29.832Z,77.91
2023-02-17T18:28:54.862Z,78.22
2023-02-17T18:34:16.988Z,78.17
2023-02-17T18:39:39.415Z,78.11
2023-02-17T18:45:01.646Z,78.08
2023-02-17T18:50:23.482Z,78.06
2023-02-17T18:55:46.509Z,77.91
2023-02-17T19:01:15.647Z,77.84
2023-02-17T19:06:37.594Z,77.81
2023-02-17T19:11:59.218Z,77.59
2023-02-17T19:17:21.053Z,77.37
2023-02-17T19:22:43.075Z,77.71
2023-02-17T19:28:05.006Z,77.90
2023-02-17T19:33:27.639Z,78.35
2023-02-17T19:38:50.394Z,78.87
2023-02-17T19:44:12.317Z,79.27
2023-02-17T19:49:34.236Z,79.53
2023-02-17T19:55:02.954Z,79.54
2023-02-17T20:00:25.263Z,79.43
2023-02-17T20:06:13.362Z,79.45
2023-02-17T20:11:35.871Z,79.08
2023-02-17T20:16:59.760Z,79.18
2023-02-17T20:22:21.936Z,79.15
2023-02-17T20:27:44.565Z,78.92
2023-02-17T20:33:06.657Z,78.77
2023-02-17T20:38:28.526Z,78.47
2023-02-17T20:43:51.213Z,78.47
2023-02-17T20:49:14.006Z,78.18
2023-02-17T20:54:36.109Z,77.88
2023-02-17T21:00:01.470Z,77.66
2023-02-17T21:05:24.602Z,77.71
2023-02-17T21:10:46.484Z,77.67
2023-02-17T21:16:18.157Z,77.66
2023-02-17T21:21:41.185Z,77.49
2023-02-17T21:27:03.161Z,77.26
2023-02-17T21:32:28.026Z,77.15
2023-02-17T21:37:50.220Z,76.81
2023-02-17T21:43:32.221Z,76.52
2023-02-17T21:48:55.663Z,76.33
2023-02-17T21:54:17.282Z,76.40
2023-02-17T21:59:40.114Z,76.11
2023-02-17T22:05:01.747Z,75.97
2023-02-17T22:10:23.776Z,76.01
2023-02-17T22:15:47.292Z,75.60
2023-02-17T22:21:11.443Z,75.54
2023-02-17T22:26:36.285Z,75.87
2023-02-17T22:32:01.373Z,76.36
2023-02-17T22:37:26.067Z,76.88
2023-02-17T22:42:48.092Z,77.05
2023-02-17T22:48:10.122Z,77.24
2023-02-17T22:53:31.950Z,77.57
2023-02-17T22:58:56.570Z,78.07
2023-02-17T23:04:18.370Z,78.21
2023-02-17T23:09:40.455Z,78.77
2023-02-17T23:15:02.479Z,79.00
2023-02-17T23:20:25.030Z,79.00
2023-02-17T23:25:52.145Z,78.92
2023-02-17T23:31:14.313Z,79.03
2023-02-17T23:36:39.380Z,78.87
2023-02-17T23:42:01.079Z,78.72
2023-02-17T23:47:23.503Z,78.73
2023-02-17T23:52:45.160Z,78.40
2023-02-17T23:58:07.274Z,78.27
